createdAt,value
2019-03-27T00:01:55.827Z,4.11
2019-03-27T00:04:22.487Z,4.06
2019-03-27T00:06:49.222Z,4.04
2019-03-27T00:09:15.839Z,4.02
2019-03-27T00:11:42.560Z,4.01
2019-03-27T00:14:09.238Z,3.93
2019-03-27T00:16:35.976Z,3.80
2019-03-27T00:19:02.633Z,3.81
2019-03-27T00:21:29.335Z,3.69
2019-03-27T00:23:55.982Z,3.62
2019-03-27T00:26:22.647Z,3.67
2019-03-27T00:28:49.307Z,3.61
2019-03-27T00:31:15.959Z,3.60
2019-03-27T00:33:42.589Z,3.55
2019-03-27T00:36:09.371Z,3.58
2019-03-27T00:38:36.018Z,3.52
2019-03-27T00:41:02.779Z,3.44
2019-03-27T00:43:29.502Z,3.38
2019-03-27T00:45:56.177Z,3.33
2019-03-27T00:48:22.819Z,3.26
2019-03-27T00:50:49.514Z,3.38
2019-03-27T00:53:16.126Z,3.40
2019-03-27T00:55:42.878Z,3.39
2019-03-27T00:58:09.537Z,3.39
2019-03-27T01:00:46.009Z,3.40
2019-03-27T01:03:12.729Z,3.37
2019-03-27T01:05:39.462Z,3.25
2019-03-27T01:08:06.206Z,3.21
2019-03-27T01:10:32.892Z,3.17
2019-03-27T01:12:59.580Z,3.10
2019-03-27T01:15:38.832Z,3.16
2019-03-27T01:17:55.004Z,3.16
2019-03-27T01:20:21.851Z,3.14
2019-03-27T01:22:48.488Z,3.13
2019-03-27T01:25:15.161Z,3.08
2019-03-27T01:27:41.829Z,3.19
2019-03-27T01:30:08.730Z,3.16
2019-03-27T01:32:35.448Z,3.21
2019-03-27T01:35:02.214Z,3.16
2019-03-27T01:37:28.799Z,3.11
2019-03-27T01:39:55.560Z,3.09
2019-03-27T01:42:22.497Z,3.01
2019-03-27T01:44:49.245Z,3.08
2019-03-27T01:47:16.078Z,3.05
2019-03-27T01:49:43.876Z,3.06
2019-03-27T01:52:10.582Z,3.05
2019-03-27T01:54:37.327Z,3.05
2019-03-27T01:57:04.071Z,3.00
2019-03-27T01:59:30.705Z,2.96
2019-03-27T02:01:57.447Z,2.94
2019-03-27T02:04:24.121Z,2.97
2019-03-27T02:06:50.823Z,2.94
2019-03-27T02:09:17.574Z,2.91
2019-03-27T02:11:44.269Z,2.89
2019-03-27T02:14:10.868Z,2.87
2019-03-27T02:16:37.505Z,2.94
2019-03-27T02:19:04.220Z,3.02
2019-03-27T02:21:30.949Z,2.89
2019-03-27T02:23:57.591Z,2.88
2019-03-27T02:26:24.325Z,2.90
2019-03-27T02:28:50.952Z,2.90
2019-03-27T02:31:17.596Z,2.92
2019-03-27T02:33:44.337Z,2.91
2019-03-27T02:36:11.079Z,2.91
2019-03-27T02:38:37.796Z,2.86
2019-03-27T02:41:04.632Z,2.87
2019-03-27T02:43:31.343Z,2.78
2019-03-27T02:45:58.033Z,2.72
2019-03-27T02:48:24.738Z,2.69
2019-03-27T02:50:51.525Z,2.67
2019-03-27T02:53:19.384Z,2.63
2019-03-27T02:55:46.127Z,2.63
2019-03-27T02:58:12.760Z,2.72
2019-03-27T03:00:39.416Z,2.74
2019-03-27T03:03:06.091Z,2.83
2019-03-27T03:05:32.765Z,2.79
2019-03-27T03:07:59.407Z,2.71
2019-03-27T03:10:26.142Z,2.83
2019-03-27T03:12:52.883Z,2.81
2019-03-27T03:15:20.858Z,2.84
2019-03-27T03:17:48.207Z,2.80
2019-03-27T03:20:14.850Z,2.81
2019-03-27T03:22:41.599Z,2.80
2019-03-27T03:25:08.643Z,2.84
2019-03-27T03:27:36.388Z,2.91
2019-03-27T03:30:06.396Z,2.90
2019-03-27T03:32:33.118Z,2.97
2019-03-27T03:34:59.793Z,2.97
2019-03-27T03:37:26.439Z,2.95
2019-03-27T03:39:53.116Z,2.94
2019-03-27T03:42:19.903Z,2.93
2019-03-27T03:44:48.580Z,2.94
2019-03-27T03:47:15.324Z,2.88
2019-03-27T03:49:41.984Z,2.84
2019-03-27T03:52:08.879Z,2.88
2019-03-27T03:54:35.795Z,2.81
2019-03-27T03:57:02.713Z,2.82
2019-03-27T03:59:29.539Z,2.80
2019-03-27T04:01:59.852Z,2.82
2019-03-27T04:04:27.719Z,2.87
2019-03-27T04:06:54.368Z,2.74
2019-03-27T04:09:21.061Z,2.73
2019-03-27T04:11:47.746Z,2.78
2019-03-27T04:14:14.373Z,2.74
2019-03-27T04:16:41.218Z,2.67
2019-03-27T04:19:07.857Z,2.71
2019-03-27T04:21:34.450Z,2.68
2019-03-27T04:24:01.236Z,2.67
2019-03-27T04:26:27.975Z,2.64
2019-03-27T04:28:54.703Z,2.65
2019-03-27T04:31:21.552Z,2.66
2019-03-27T04:33:48.161Z,2.63
2019-03-27T04:36:14.936Z,2.54
2019-03-27T04:38:41.687Z,2.49
2019-03-27T04:41:08.508Z,2.50
2019-03-27T04:43:35.250Z,2.59
2019-03-27T04:46:02.901Z,2.76
2019-03-27T04:48:29.625Z,2.75
2019-03-27T04:50:56.339Z,2.97
2019-03-27T04:53:23.080Z,3.08
2019-03-27T04:55:50.679Z,3.13
2019-03-27T04:58:17.530Z,3.11
2019-03-27T05:00:44.261Z,3.24
2019-03-27T05:03:11.106Z,3.18
2019-03-27T05:05:37.851Z,3.26
2019-03-27T05:08:04.572Z,3.23
2019-03-27T05:10:31.198Z,3.38
2019-03-27T05:12:57.921Z,3.33
2019-03-27T05:15:24.615Z,3.36
2019-03-27T05:17:51.343Z,3.30
2019-03-27T05:20:18.114Z,3.32
2019-03-27T05:22:44.830Z,3.38
2019-03-27T05:25:11.432Z,3.53
2019-03-27T05:27:38.076Z,3.60
2019-03-27T05:30:06.163Z,3.67
2019-03-27T05:32:32.793Z,3.79
2019-03-27T05:35:00.561Z,3.83
2019-03-27T05:37:27.231Z,3.77
2019-03-27T05:39:53.837Z,3.75
2019-03-27T05:42:20.480Z,3.80
2019-03-27T05:44:47.167Z,3.91
2019-03-27T05:47:13.853Z,3.95
2019-03-27T05:49:40.501Z,3.99
2019-03-27T05:52:07.186Z,3.92
2019-03-27T05:54:33.792Z,3.86
2019-03-27T05:57:00.455Z,3.92
2019-03-27T05:59:27.152Z,4.21
2019-03-27T06:01:53.897Z,4.25
2019-03-27T06:04:20.606Z,4.07
2019-03-27T06:06:47.321Z,4.12
2019-03-27T06:09:13.982Z,4.24
2019-03-27T06:11:40.686Z,4.16
2019-03-27T06:14:07.477Z,3.86
2019-03-27T06:16:34.213Z,3.80
2019-03-27T06:19:00.917Z,3.68
2019-03-27T06:21:27.685Z,3.63
2019-03-27T06:23:54.278Z,3.71
2019-03-27T06:26:20.943Z,3.75
2019-03-27T06:28:47.704Z,4.02
2019-03-27T06:31:14.449Z,4.22
2019-03-27T06:33:41.155Z,4.24
2019-03-27T06:36:07.837Z,4.43
2019-03-27T06:38:34.492Z,4.62
2019-03-27T06:41:01.119Z,4.62
2019-03-27T06:43:27.847Z,4.70
2019-03-27T06:45:54.575Z,4.64
2019-03-27T06:48:26.447Z,4.61
2019-03-27T06:50:49.930Z,4.75
2019-03-27T06:53:16.544Z,4.91
2019-03-27T06:55:43.510Z,5.01
2019-03-27T06:58:10.189Z,5.14
2019-03-27T07:00:37.191Z,5.34
2019-03-27T07:03:05.141Z,5.32
2019-03-27T07:05:32.044Z,5.35
2019-03-27T07:07:59.102Z,5.52
2019-03-27T07:10:25.801Z,5.69
2019-03-27T07:12:52.472Z,5.74
2019-03-27T07:15:19.120Z,5.91
2019-03-27T07:17:45.749Z,5.97
2019-03-27T07:20:13.567Z,5.97
2019-03-27T07:22:40.177Z,6.14
2019-03-27T07:25:07.861Z,6.28
2019-03-27T07:27:35.558Z,6.37
2019-03-27T07:30:02.782Z,6.55
2019-03-27T07:32:30.916Z,6.76
2019-03-27T07:34:57.653Z,6.70
2019-03-27T07:37:24.412Z,6.90
2019-03-27T07:39:51.136Z,6.81
2019-03-27T07:42:17.866Z,7.05
2019-03-27T07:44:44.460Z,7.08
2019-03-27T07:47:11.157Z,7.04
2019-03-27T07:49:37.921Z,7.01
2019-03-27T07:52:04.645Z,7.12
2019-03-27T07:54:31.368Z,7.23
2019-03-27T07:56:58.486Z,7.16
2019-03-27T07:59:26.083Z,7.28
2019-03-27T08:01:52.755Z,7.50
2019-03-27T08:04:19.428Z,7.58
2019-03-27T08:06:46.087Z,7.50
2019-03-27T08:09:12.852Z,7.59
2019-03-27T08:11:39.582Z,7.59
2019-03-27T08:14:06.475Z,7.71
2019-03-27T08:16:33.142Z,7.72
2019-03-27T08:19:07.381Z,7.86
2019-03-27T08:21:31.076Z,7.85
2019-03-27T08:23:56.966Z,7.90
2019-03-27T08:26:23.595Z,7.96
2019-03-27T08:28:50.299Z,8.18
2019-03-27T08:31:16.917Z,8.11
2019-03-27T08:33:43.586Z,8.16
2019-03-27T08:36:10.291Z,8.22
2019-03-27T08:38:36.914Z,8.35
2019-03-27T08:41:03.647Z,8.53
2019-03-27T08:43:30.307Z,8.58
2019-03-27T08:45:57.033Z,8.62
2019-03-27T08:48:23.727Z,8.62
2019-03-27T08:50:50.490Z,8.62
2019-03-27T08:53:17.211Z,8.60
2019-03-27T08:55:43.887Z,8.85
2019-03-27T08:58:10.688Z,8.91
2019-03-27T09:00:53.883Z,9.21
2019-03-27T09:03:20.579Z,9.15
2019-03-27T09:05:48.321Z,9.38
2019-03-27T09:08:15.115Z,9.51
2019-03-27T09:10:41.872Z,9.45
2019-03-27T09:13:08.592Z,9.67
2019-03-27T09:15:35.303Z,9.87
2019-03-27T09:18:01.904Z,9.73
2019-03-27T09:20:28.637Z,10.00
2019-03-27T09:22:55.251Z,10.22
2019-03-27T09:25:21.842Z,10.32
2019-03-27T09:27:48.531Z,10.63
2019-03-27T09:30:15.717Z,10.70
2019-03-27T09:32:42.334Z,10.66
2019-03-27T09:35:09.325Z,10.65
2019-03-27T09:37:35.961Z,10.38
2019-03-27T09:40:04.051Z,10.56
2019-03-27T09:42:30.741Z,10.71
2019-03-27T09:44:57.428Z,10.80
2019-03-27T09:47:24.075Z,10.85
2019-03-27T09:49:50.778Z,10.76
2019-03-27T09:52:17.436Z,10.71
2019-03-27T09:54:44.111Z,10.72
2019-03-27T09:57:11.890Z,10.80
2019-03-27T09:59:38.558Z,10.40
2019-03-27T10:02:05.185Z,10.59
2019-03-27T10:04:31.896Z,10.50
2019-03-27T10:06:59.529Z,10.62
2019-03-27T10:09:26.188Z,10.75
2019-03-27T10:11:52.889Z,11.00
2019-03-27T10:14:19.531Z,11.34
2019-03-27T10:16:46.255Z,11.57
2019-03-27T10:19:12.963Z,11.78
2019-03-27T10:21:39.657Z,11.89
2019-03-27T10:24:06.378Z,11.72
2019-03-27T10:26:33.087Z,11.83
2019-03-27T10:28:59.701Z,11.90
2019-03-27T10:31:26.366Z,11.79
2019-03-27T10:33:53.138Z,11.74
2019-03-27T10:36:19.868Z,11.70
2019-03-27T10:38:46.594Z,11.47
2019-03-27T10:41:13.328Z,11.29
2019-03-27T10:43:39.915Z,11.26
2019-03-27T10:46:06.563Z,11.33
2019-03-27T10:48:33.290Z,11.30
2019-03-27T10:50:59.887Z,11.24
2019-03-27T10:53:26.530Z,11.41
2019-03-27T10:55:53.229Z,11.72
2019-03-27T10:58:19.844Z,11.42
2019-03-27T11:00:46.474Z,11.58
2019-03-27T11:03:13.160Z,11.42
2019-03-27T11:05:39.761Z,11.08
2019-03-27T11:08:06.372Z,11.22
2019-03-27T11:10:33.042Z,11.19
2019-03-27T11:12:59.639Z,11.23
2019-03-27T11:15:26.263Z,10.92
2019-03-27T11:17:52.962Z,11.06
2019-03-27T11:20:30.402Z,10.75
2019-03-27T11:22:48.387Z,10.53
2019-03-27T11:25:15.087Z,10.90
2019-03-27T11:27:41.762Z,10.98
2019-03-27T11:30:09.708Z,11.09
2019-03-27T11:32:36.388Z,11.26
2019-03-27T11:35:03.693Z,10.91
2019-03-27T11:37:30.346Z,10.80
2019-03-27T11:39:57.030Z,10.98
2019-03-27T11:42:23.778Z,11.32
2019-03-27T11:44:50.490Z,11.35
2019-03-27T11:47:17.212Z,11.41
2019-03-27T11:49:43.830Z,11.36
2019-03-27T11:52:10.530Z,11.49
2019-03-27T11:54:37.299Z,11.20
2019-03-27T11:57:04.011Z,11.06
2019-03-27T11:59:31.706Z,11.21
2019-03-27T12:01:58.408Z,11.47
2019-03-27T12:04:24.997Z,11.37
2019-03-27T12:06:51.725Z,11.55
2019-03-27T12:09:18.398Z,11.40
2019-03-27T12:11:45.115Z,11.31
2019-03-27T12:14:12.359Z,11.12
2019-03-27T12:16:39.225Z,11.08
2019-03-27T12:19:05.824Z,11.34
2019-03-27T12:21:32.456Z,11.46
2019-03-27T12:23:59.207Z,11.62
2019-03-27T12:26:25.809Z,11.87
2019-03-27T12:28:52.436Z,11.72
2019-03-27T12:31:19.120Z,11.39
2019-03-27T12:33:46.841Z,11.26
2019-03-27T12:36:13.431Z,11.37
2019-03-27T12:38:40.121Z,11.54
2019-03-27T12:41:06.731Z,11.56
2019-03-27T12:43:33.324Z,11.35
2019-03-27T12:46:00.011Z,11.22
2019-03-27T12:48:26.855Z,11.27
2019-03-27T12:50:53.445Z,11.35
2019-03-27T12:53:20.114Z,11.31
2019-03-27T12:55:46.891Z,11.22
2019-03-27T12:58:13.604Z,11.20
2019-03-27T13:00:40.307Z,11.32
2019-03-27T13:03:07.219Z,11.47
2019-03-27T13:05:33.883Z,11.61
2019-03-27T13:08:00.566Z,11.52
2019-03-27T13:10:27.282Z,11.76
2019-03-27T13:12:54.024Z,11.95
2019-03-27T13:15:20.761Z,12.07
2019-03-27T13:17:47.376Z,12.35
2019-03-27T13:20:14.032Z,12.40
2019-03-27T13:22:40.723Z,12.59
2019-03-27T13:25:07.864Z,12.29
2019-03-27T13:27:34.595Z,12.06
2019-03-27T13:30:01.295Z,11.64
2019-03-27T13:32:27.910Z,11.62
2019-03-27T13:34:54.579Z,11.66
2019-03-27T13:37:21.296Z,11.56
2019-03-27T13:39:47.894Z,11.71
2019-03-27T13:42:14.579Z,11.86
2019-03-27T13:44:41.273Z,11.85
2019-03-27T13:47:08.108Z,11.94
2019-03-27T13:49:34.863Z,11.80
2019-03-27T13:52:02.694Z,11.77
2019-03-27T13:54:29.301Z,11.85
2019-03-27T13:56:56.038Z,11.97
2019-03-27T13:59:22.789Z,12.03
2019-03-27T14:01:49.418Z,12.17
2019-03-27T14:04:16.039Z,11.99
2019-03-27T14:06:44.919Z,12.13
2019-03-27T14:09:11.774Z,12.37
2019-03-27T14:11:38.561Z,12.59
2019-03-27T14:14:11.137Z,12.24
2019-03-27T14:16:34.035Z,12.28
2019-03-27T14:19:00.723Z,12.15
2019-03-27T14:21:27.454Z,12.11
2019-03-27T14:23:54.131Z,12.15
2019-03-27T14:26:20.820Z,12.34
2019-03-27T14:28:47.519Z,12.58
2019-03-27T14:31:14.272Z,12.60
2019-03-27T14:33:40.986Z,12.72
2019-03-27T14:36:07.717Z,12.50
2019-03-27T14:38:34.326Z,12.50
2019-03-27T14:41:01.006Z,12.28
2019-03-27T14:43:27.680Z,12.17
2019-03-27T14:45:54.387Z,12.27
2019-03-27T14:48:21.067Z,12.50
2019-03-27T14:50:47.793Z,12.47
2019-03-27T14:53:14.411Z,12.38
2019-03-27T14:55:41.119Z,12.30
2019-03-27T14:58:07.887Z,12.33
2019-03-27T15:00:34.515Z,12.38
2019-03-27T15:03:01.245Z,12.55
2019-03-27T15:05:27.935Z,12.54
2019-03-27T15:07:54.576Z,12.12
2019-03-27T15:10:21.215Z,11.55
2019-03-27T15:12:47.932Z,11.59
2019-03-27T15:15:14.941Z,11.53
2019-03-27T15:17:41.672Z,11.54
2019-03-27T15:20:08.927Z,11.72
2019-03-27T15:22:35.579Z,11.73
2019-03-27T15:25:03.936Z,11.68
2019-03-27T15:27:30.654Z,11.81
2019-03-27T15:29:57.248Z,11.86
2019-03-27T15:32:23.894Z,11.87
2019-03-27T15:34:50.617Z,11.74
2019-03-27T15:37:17.263Z,11.68
2019-03-27T15:39:43.885Z,11.52
2019-03-27T15:42:10.573Z,11.50
2019-03-27T15:44:37.183Z,11.53
2019-03-27T15:47:03.862Z,11.57
2019-03-27T15:49:30.538Z,11.45
2019-03-27T15:51:57.259Z,11.20
2019-03-27T15:54:23.975Z,11.00
2019-03-27T15:56:50.693Z,10.85
2019-03-27T15:59:17.353Z,10.75
2019-03-27T16:01:43.981Z,10.78
2019-03-27T16:04:10.772Z,10.66
2019-03-27T16:06:37.456Z,10.69
2019-03-27T16:09:07.802Z,10.67
2019-03-27T16:11:34.626Z,10.93
2019-03-27T16:14:01.228Z,11.16
2019-03-27T16:16:27.884Z,11.14
2019-03-27T16:18:54.597Z,11.08
2019-03-27T16:21:21.301Z,10.82
2019-03-27T16:23:47.960Z,10.73
2019-03-27T16:26:14.658Z,10.62
2019-03-27T16:28:41.252Z,10.53
2019-03-27T16:31:08.014Z,10.40
2019-03-27T16:33:34.705Z,10.35
2019-03-27T16:36:01.327Z,10.02
2019-03-27T16:38:28.044Z,9.83
2019-03-27T16:40:54.770Z,9.53
2019-03-27T16:43:21.441Z,9.41
2019-03-27T16:45:48.354Z,9.44
2019-03-27T16:48:15.072Z,9.43
2019-03-27T16:50:41.799Z,9.30
2019-03-27T16:53:08.451Z,9.17
2019-03-27T16:55:35.167Z,9.13
2019-03-27T16:58:01.877Z,9.13
2019-03-27T17:00:28.618Z,9.23
2019-03-27T17:02:55.334Z,9.17
2019-03-27T17:05:21.967Z,9.24
2019-03-27T17:07:48.589Z,9.16
2019-03-27T17:10:15.293Z,9.07
2019-03-27T17:12:41.991Z,8.98
2019-03-27T17:15:08.784Z,8.87
2019-03-27T17:17:35.477Z,8.84
2019-03-27T17:20:03.376Z,8.82
2019-03-27T17:22:29.987Z,8.77
2019-03-27T17:24:56.667Z,8.65
2019-03-27T17:27:23.280Z,8.54
2019-03-27T17:29:49.893Z,8.58
2019-03-27T17:32:16.598Z,8.43
2019-03-27T17:34:43.194Z,8.32
2019-03-27T17:37:09.799Z,8.37
2019-03-27T17:39:36.500Z,8.36
2019-03-27T17:42:03.169Z,8.31
2019-03-27T17:44:29.837Z,8.31
2019-03-27T17:46:56.536Z,8.37
2019-03-27T17:49:23.158Z,8.38
2019-03-27T17:51:49.879Z,8.37
2019-03-27T17:54:20.845Z,8.10
2019-03-27T17:56:45.102Z,8.16
2019-03-27T17:59:11.844Z,8.09
2019-03-27T18:01:38.698Z,8.15
2019-03-27T18:04:06.417Z,8.04
2019-03-27T18:06:33.137Z,8.14
2019-03-27T18:08:59.881Z,8.12
2019-03-27T18:11:26.589Z,8.03
2019-03-27T18:13:53.307Z,7.97
2019-03-27T18:16:19.978Z,7.86
2019-03-27T18:18:46.691Z,7.89
2019-03-27T18:21:13.402Z,7.98
2019-03-27T18:23:46.403Z,8.01
2019-03-27T18:26:08.857Z,8.05
2019-03-27T18:28:36.581Z,7.98
2019-03-27T18:31:03.348Z,7.81
2019-03-27T18:33:30.134Z,7.91
2019-03-27T18:35:56.859Z,7.86
2019-03-27T18:38:23.556Z,7.90
2019-03-27T18:40:50.169Z,7.96
2019-03-27T18:43:16.792Z,7.81
2019-03-27T18:45:43.484Z,7.95
2019-03-27T18:48:10.080Z,8.04
2019-03-27T18:50:36.705Z,7.90
2019-03-27T18:53:03.355Z,7.83
2019-03-27T18:55:29.970Z,7.66
2019-03-27T18:58:00.274Z,7.72
2019-03-27T19:00:25.243Z,7.69
2019-03-27T19:02:51.918Z,7.68
2019-03-27T19:05:18.549Z,7.76
2019-03-27T19:07:45.245Z,7.71
2019-03-27T19:10:12.159Z,7.83
2019-03-27T19:12:38.834Z,7.81
2019-03-27T19:15:05.818Z,7.66
2019-03-27T19:17:32.552Z,7.71
2019-03-27T19:19:59.251Z,7.73
2019-03-27T19:22:25.991Z,7.77
2019-03-27T19:24:52.597Z,7.72
2019-03-27T19:27:19.311Z,7.69
2019-03-27T19:29:46.089Z,7.61
2019-03-27T19:32:12.803Z,7.53
2019-03-27T19:34:39.570Z,7.50
2019-03-27T19:37:06.274Z,7.52
2019-03-27T19:39:32.883Z,7.51
2019-03-27T19:41:59.611Z,7.39
2019-03-27T19:44:26.372Z,7.27
2019-03-27T19:46:53.105Z,7.24
2019-03-27T19:49:19.899Z,7.17
2019-03-27T19:51:46.523Z,7.03
2019-03-27T19:54:26.224Z,7.00
2019-03-27T19:56:42.823Z,6.99
2019-03-27T19:59:09.472Z,6.90
2019-03-27T20:01:36.176Z,6.82
2019-03-27T20:04:02.902Z,6.77
2019-03-27T20:06:29.600Z,6.71
2019-03-27T20:08:57.256Z,6.74
2019-03-27T20:11:23.976Z,6.66
2019-03-27T20:13:50.760Z,6.60
2019-03-27T20:16:17.488Z,6.55
2019-03-27T20:18:44.216Z,6.47
2019-03-27T20:21:10.939Z,6.49
2019-03-27T20:23:37.709Z,6.46
2019-03-27T20:26:04.432Z,6.53
2019-03-27T20:28:31.158Z,6.49
2019-03-27T20:30:57.867Z,6.56
2019-03-27T20:33:24.488Z,6.58
2019-03-27T20:35:51.199Z,6.66
2019-03-27T20:38:17.949Z,6.61
2019-03-27T20:40:44.645Z,6.66
2019-03-27T20:43:11.363Z,6.54
2019-03-27T20:45:38.189Z,6.57
2019-03-27T20:48:04.838Z,6.51
2019-03-27T20:50:32.495Z,6.45
2019-03-27T20:52:59.254Z,6.39
2019-03-27T20:55:30.678Z,6.35
2019-03-27T20:57:54.607Z,6.37
2019-03-27T21:00:21.231Z,6.39
2019-03-27T21:02:48.122Z,6.38
2019-03-27T21:05:15.703Z,6.48
2019-03-27T21:07:43.403Z,6.51
2019-03-27T21:10:12.913Z,6.56
2019-03-27T21:12:39.664Z,6.63
2019-03-27T21:15:07.333Z,6.69
2019-03-27T21:17:34.015Z,6.63
2019-03-27T21:20:00.676Z,6.70
2019-03-27T21:22:27.311Z,6.73
2019-03-27T21:25:07.672Z,6.78
2019-03-27T21:27:22.610Z,6.88
2019-03-27T21:29:49.239Z,6.86
2019-03-27T21:32:15.875Z,6.81
2019-03-27T21:34:42.570Z,6.80
2019-03-27T21:37:09.239Z,6.88
2019-03-27T21:39:35.946Z,6.85
2019-03-27T21:42:02.641Z,6.88
2019-03-27T21:44:29.306Z,6.94
2019-03-27T21:46:55.929Z,6.91
2019-03-27T21:49:22.633Z,6.85
2019-03-27T21:51:49.253Z,6.82
2019-03-27T21:54:15.890Z,6.86
2019-03-27T21:56:42.564Z,6.82
2019-03-27T21:59:09.221Z,6.53
2019-03-27T22:01:35.879Z,6.61
2019-03-27T22:04:02.566Z,6.72
2019-03-27T22:06:29.251Z,6.65
2019-03-27T22:08:56.159Z,6.66
2019-03-27T22:11:22.834Z,6.53
2019-03-27T22:13:49.464Z,6.38
2019-03-27T22:16:16.112Z,6.30
2019-03-27T22:18:42.816Z,6.22
2019-03-27T22:21:09.412Z,6.20
2019-03-27T22:23:36.080Z,6.20
2019-03-27T22:26:02.822Z,6.17
2019-03-27T22:28:29.510Z,6.15
2019-03-27T22:30:56.139Z,6.09
2019-03-27T22:33:22.835Z,6.02
2019-03-27T22:35:49.433Z,6.13
2019-03-27T22:38:16.087Z,6.26
2019-03-27T22:40:42.877Z,6.42
2019-03-27T22:43:09.504Z,6.30
2019-03-27T22:45:36.142Z,6.15
2019-03-27T22:48:02.863Z,6.02
2019-03-27T22:50:29.457Z,5.94
2019-03-27T22:52:56.139Z,5.79
2019-03-27T22:55:22.839Z,5.73
2019-03-27T22:57:49.480Z,5.57
2019-03-27T23:00:17.559Z,5.48
2019-03-27T23:02:46.042Z,5.43
2019-03-27T23:05:12.733Z,5.33
2019-03-27T23:07:39.490Z,5.23
2019-03-27T23:10:06.503Z,5.22
2019-03-27T23:12:33.138Z,5.18
2019-03-27T23:14:59.782Z,5.09
2019-03-27T23:17:27.447Z,5.08
2019-03-27T23:19:54.149Z,5.01
2019-03-27T23:22:20.858Z,5.00
2019-03-27T23:24:47.789Z,4.97
2019-03-27T23:27:14.388Z,4.96
2019-03-27T23:29:41.011Z,4.96
2019-03-27T23:32:08.229Z,4.89
2019-03-27T23:34:34.822Z,4.84
2019-03-27T23:37:01.461Z,4.88
2019-03-27T23:39:28.176Z,4.93
2019-03-27T23:41:54.830Z,4.99
2019-03-27T23:44:21.439Z,5.05
2019-03-27T23:46:48.142Z,5.01
2019-03-27T23:49:14.734Z,4.98
2019-03-27T23:51:42.447Z,4.98
2019-03-27T23:54:09.105Z,4.91
2019-03-27T23:56:35.703Z,4.97
2019-03-27T23:59:02.290Z,4.96
